Liberty Promise — WWMZ — position and weather

sailwx.info

Track history (hours):
 
Tides and Currents Weather Stations Pressure Air Temp Water Temp Dewpoint Dewpoint Depression Visibility Wind Speed Wind Dir Waves Ship Positions

Liberty Promise

Owner: LIBERTY PROMISE CORPORATION, LAKE SUCCESS, NY. More information available from US FCC via Universal Licensing System and Coast Guard Vessel Documentation Center.

Last reported at 2016-Jul-29 17:31 UTC. Time now 2016-Jul-29 17:54 UTC.
Position N 39°43' W 075°31'.

Length 200 m; draft 9.1 m.

Type: Cargo ship. MMSI: 366102000.

Date/timePositionNaut miles runAvg speedWind from/ knotsBaromVisibWave heightAir tempDewpointWater temp
2016-Jul-29 17:31N 39°43' W 075°31'0 0.0
2016-Jul-29 16:31N 39°43' W 075°31'0 0.0
2016-Jul-29 15:31N 39°43' W 075°31'0 0.0
2016-Jul-29 14:31N 39°43' W 075°31'0 0.0
2016-Jul-29 13:31N 39°43' W 075°31'0 0.0
2016-Jul-29 12:31N 39°43' W 075°31'0 0.0
2016-Jul-29 11:31N 39°43' W 075°31'0 0.0
2016-Jul-29 10:31N 39°43' W 075°31'0 0.0
2016-Jul-29 09:31N 39°43' W 075°31'0 0.0
2016-Jul-29 08:31N 39°43' W 075°31'0 0.0
2016-Jul-29 07:31N 39°43' W 075°31'0 0.0
2016-Jul-29 06:31N 39°43' W 075°31'0 0.0
2016-Jul-29 05:31N 39°43' W 075°31'0 0.0
2016-Jul-29 04:31N 39°43' W 075°31'0 0.0
2016-Jul-29 03:31N 39°43' W 075°31'0 0.0
2016-Jul-29 02:31N 39°43' W 075°31'0 0.0
2016-Jul-29 01:31N 39°43' W 075°31'0 0.0
2016-Jul-29 00:31N 39°43' W 075°31'0 0.0
2016-Jul-28 23:31N 39°43' W 075°31'0 0.0
2016-Jul-28 22:31N 39°43' W 075°31'0 0.0
2016-Jul-28 21:31N 39°43' W 075°31'0 0.0
2016-Jul-28 20:31N 39°43' W 075°31'0 0.0
2016-Jul-28 19:31N 39°43' W 075°31'0 0.0
2016-Jul-28 18:31N 39°43' W 075°31'0 0.0
2016-Jul-28 17:31N 39°43' W 075°31'0 0.1
2016-Jul-28 16:34N 39°42' W 075°31'6 5.8
2016-Jul-28 15:34N 39°37' W 075°35'1212.1
2016-Jul-28 14:34N 39°26' W 075°32'1313.2
2016-Jul-28 13:33N 39°16' W 075°20'1413.6
2016-Jul-28 12:34N 39°04' W 075°11'1413.7
2016-Jul-28 11:33N 38°52' W 075°04'1010.1
2016-Jul-28 10:33N 38°44' W 074°56'1110.9
2016-Jul-28 09:33N 38°35' W 074°47'1212.2
2016-Jul-28 08:33N 38°24' W 074°40'  
2016-Jul-26 02:29N 26°11' W 079°22'1213.0
2016-Jul-26 01:33N 25°59' W 079°26'2315.0
2016-Jul-26 00:00N 25°36' W 079°30'47113.1 100 / 181015.510.8 0.528.424.330.4
2016-Jul-24 12:00N 25°48' W 088°12'37815.4 260 / 71013.810.8 0.527.324.630.8
2016-Jul-23 11:32N 29°39' W 093°50'9 8.9
2016-Jul-23 10:33N 29°46' W 093°55'8 7.6
2016-Jul-23 09:33N 29°54' W 093°55'6 5.3
2016-Jul-23 08:29N 29°59' W 093°53'6 6.3
2016-Jul-23 07:33N 30°01' W 093°59'6 5.2
2016-Jul-23 06:26N 30°05' W 094°04'1 0.0
2016-Jul-22 10:18N 30°05' W 094°05'0 0.0
2016-Jul-21 10:06N 30°05' W 094°05'0 0.0
2016-Jul-21 07:30N 30°05' W 094°05'0 0.0
2016-Jul-20 00:20N 30°05' W 094°05'0 0.0
2016-Jul-19 23:20N 30°05' W 094°05'0 0.0
2016-Jul-19 22:14N 30°05' W 094°05'0 0.2
2016-Jul-19 21:22N 30°05' W 094°05'3 4.1
2016-Jul-19 20:33N 30°03' W 094°02'6 6.0
2016-Jul-19 19:33N 29°60' W 093°56'5 5.1
2016-Jul-19 18:33N 29°55' W 093°53'9 8.7
2016-Jul-19 17:33N 29°47' W 093°57'  
Track history (hours):
 
Tides and Currents Weather Stations Pressure Air Temp Water Temp Dewpoint Dewpoint Depression Visibility Wind Speed Wind Dir Waves Ship Positions

Liberty Promise

Owner: LIBERTY PROMISE CORPORATION, LAKE SUCCESS, NY. More information available from US FCC via Universal Licensing System and Coast Guard Vessel Documentation Center.

Last reported at 2016-Jul-29 17:31 UTC. Time now 2016-Jul-29 17:54 UTC.
Position N 39°43' W 075°31'.

Length 200 m; draft 9.1 m.

Type: Cargo ship. MMSI: 366102000.

Date/timePositionNaut miles runAvg speedWind from/ knotsBaromVisibWave heightAir tempDewpointWater temp
2016-Jul-29 17:31N 39°43' W 075°31'0 0.0
2016-Jul-29 16:31N 39°43' W 075°31'0 0.0
2016-Jul-29 15:31N 39°43' W 075°31'0 0.0
2016-Jul-29 14:31N 39°43' W 075°31'0 0.0
2016-Jul-29 13:31N 39°43' W 075°31'0 0.0
2016-Jul-29 12:31N 39°43' W 075°31'0 0.0
2016-Jul-29 11:31N 39°43' W 075°31'0 0.0
2016-Jul-29 10:31N 39°43' W 075°31'0 0.0
2016-Jul-29 09:31N 39°43' W 075°31'0 0.0
2016-Jul-29 08:31N 39°43' W 075°31'0 0.0
2016-Jul-29 07:31N 39°43' W 075°31'0 0.0
2016-Jul-29 06:31N 39°43' W 075°31'0 0.0
2016-Jul-29 05:31N 39°43' W 075°31'0 0.0
2016-Jul-29 04:31N 39°43' W 075°31'0 0.0
2016-Jul-29 03:31N 39°43' W 075°31'0 0.0
2016-Jul-29 02:31N 39°43' W 075°31'0 0.0
2016-Jul-29 01:31N 39°43' W 075°31'0 0.0
2016-Jul-29 00:31N 39°43' W 075°31'0 0.0
2016-Jul-28 23:31N 39°43' W 075°31'0 0.0
2016-Jul-28 22:31N 39°43' W 075°31'0 0.0
2016-Jul-28 21:31N 39°43' W 075°31'0 0.0
2016-Jul-28 20:31N 39°43' W 075°31'0 0.0
2016-Jul-28 19:31N 39°43' W 075°31'0 0.0
2016-Jul-28 18:31N 39°43' W 075°31'0 0.0
2016-Jul-28 17:31N 39°43' W 075°31'0 0.1
2016-Jul-28 16:34N 39°42' W 075°31'6 5.8
2016-Jul-28 15:34N 39°37' W 075°35'1212.1
2016-Jul-28 14:34N 39°26' W 075°32'1313.2
2016-Jul-28 13:33N 39°16' W 075°20'1413.6
2016-Jul-28 12:34N 39°04' W 075°11'1413.7
2016-Jul-28 11:33N 38°52' W 075°04'1010.1
2016-Jul-28 10:33N 38°44' W 074°56'1110.9
2016-Jul-28 09:33N 38°35' W 074°47'1212.2
2016-Jul-28 08:33N 38°24' W 074°40'  
2016-Jul-26 02:29N 26°11' W 079°22'1213.0
2016-Jul-26 01:33N 25°59' W 079°26'2315.0
2016-Jul-26 00:00N 25°36' W 079°30'47113.1 100 / 181015.510.8 0.528.424.330.4
2016-Jul-24 12:00N 25°48' W 088°12'37815.4 260 / 71013.810.8 0.527.324.630.8
2016-Jul-23 11:32N 29°39' W 093°50'9 8.9
2016-Jul-23 10:33N 29°46' W 093°55'8 7.6
2016-Jul-23 09:33N 29°54' W 093°55'6 5.3
2016-Jul-23 08:29N 29°59' W 093°53'6 6.3
2016-Jul-23 07:33N 30°01' W 093°59'6 5.2
2016-Jul-23 06:26N 30°05' W 094°04'1 0.0
2016-Jul-22 10:18N 30°05' W 094°05'0 0.0
2016-Jul-21 10:06N 30°05' W 094°05'0 0.0
2016-Jul-21 07:30N 30°05' W 094°05'0 0.0
2016-Jul-20 00:20N 30°05' W 094°05'0 0.0
2016-Jul-19 23:20N 30°05' W 094°05'0 0.0
2016-Jul-19 22:14N 30°05' W 094°05'0 0.2
2016-Jul-19 21:22N 30°05' W 094°05'3 4.1
2016-Jul-19 20:33N 30°03' W 094°02'6 6.0
2016-Jul-19 19:33N 29°60' W 093°56'5 5.1
2016-Jul-19 18:33N 29°55' W 093°53'9 8.7
2016-Jul-19 17:33N 29°47' W 093°57'  

Dump ship's entire track history